sensor_id;sensor_type;location;lat;lon;timestamp;temperature;humidity
69031;DHT22;56083;48.774;8.942;2023-02-28T00:01:29;-3.70;99.90
69031;DHT22;56083;48.774;8.942;2023-02-28T00:03:55;-3.70;99.90
69031;DHT22;56083;48.774;8.942;2023-02-28T00:06:21;-3.80;99.90
69031;DHT22;56083;48.774;8.942;2023-02-28T00:08:47;-3.70;99.90
69031;DHT22;56083;48.774;8.942;2023-02-28T00:11:14;-3.70;99.90
69031;DHT22;56083;48.774;8.942;2023-02-28T00:13:43;-3.80;99.90
69031;DHT22;56083;48.774;8.942;2023-02-28T00:16:17;-3.80;99.90
69031;DHT22;56083;48.774;8.942;2023-02-28T00:18:44;-3.90;99.90
69031;DHT22;56083;48.774;8.942;2023-02-28T00:21:09;-3.90;99.90
69031;DHT22;56083;48.774;8.942;2023-02-28T00:23:36;-3.90;99.90
69031;DHT22;56083;48.774;8.942;2023-02-28T00:26:02;-3.90;99.90
69031;DHT22;56083;48.774;8.942;2023-02-28T00:28:28;-3.90;99.90
69031;DHT22;56083;48.774;8.942;2023-02-28T00:30:53;-3.90;99.90
69031;DHT22;56083;48.774;8.942;2023-02-28T00:33:19;-4.00;99.90
69031;DHT22;56083;48.774;8.942;2023-02-28T00:35:45;-4.00;99.90
69031;DHT22;56083;48.774;8.942;2023-02-28T00:38:14;-4.00;99.90
69031;DHT22;56083;48.774;8.942;2023-02-28T00:40:40;-3.90;99.90
69031;DHT22;56083;48.774;8.942;2023-02-28T00:43:06;-4.00;99.90
69031;DHT22;56083;48.774;8.942;2023-02-28T00:45:31;-4.00;99.90
69031;DHT22;56083;48.774;8.942;2023-02-28T00:47:57;-4.10;99.90
69031;DHT22;56083;48.774;8.942;2023-02-28T00:50:23;-4.10;99.90
69031;DHT22;56083;48.774;8.942;2023-02-28T00:52:48;-4.10;99.90
69031;DHT22;56083;48.774;8.942;2023-02-28T00:55:14;-4.10;99.90
69031;DHT22;56083;48.774;8.942;2023-02-28T00:57:40;-4.10;99.90
69031;DHT22;56083;48.774;8.942;2023-02-28T01:00:06;-4.10;99.90
69031;DHT22;56083;48.774;8.942;2023-02-28T01:02:33;-4.10;99.90
69031;DHT22;56083;48.774;8.942;2023-02-28T01:04:58;-4.10;99.90
69031;DHT22;56083;48.774;8.942;2023-02-28T01:07:24;-4.20;99.90
69031;DHT22;56083;48.774;8.942;2023-02-28T01:09:49;-4.30;99.90
69031;DHT22;56083;48.774;8.942;2023-02-28T01:12:15;-4.20;99.90
69031;DHT22;56083;48.774;8.942;2023-02-28T01:14:41;-4.30;99.90
69031;DHT22;56083;48.774;8.942;2023-02-28T01:17:07;-4.20;99.90
69031;DHT22;56083;48.774;8.942;2023-02-28T01:19:33;-4.30;99.90
69031;DHT22;56083;48.774;8.942;2023-02-28T01:22:04;-4.30;99.90
69031;DHT22;56083;48.774;8.942;2023-02-28T01:24:30;-4.30;99.90
69031;DHT22;56083;48.774;8.942;2023-02-28T01:26:56;-4.30;99.90
69031;DHT22;56083;48.774;8.942;2023-02-28T01:29:22;-4.40;99.90
69031;DHT22;56083;48.774;8.942;2023-02-28T01:31:47;-4.40;99.90
69031;DHT22;56083;48.774;8.942;2023-02-28T01:34:13;-4.40;99.90
69031;DHT22;56083;48.774;8.942;2023-02-28T01:36:38;-4.40;99.90
69031;DHT22;56083;48.774;8.942;2023-02-28T01:39:04;-4.40;99.90
69031;DHT22;56083;48.774;8.942;2023-02-28T01:41:32;-4.40;99.90
69031;DHT22;56083;48.774;8.942;2023-02-28T01:44:05;-4.40;99.90
69031;DHT22;56083;48.774;8.942;2023-02-28T01:46:33;-4.40;99.90
69031;DHT22;56083;48.774;8.942;2023-02-28T01:49:00;-4.40;99.90
69031;DHT22;56083;48.774;8.942;2023-02-28T01:54:07;-4.40;99.90
69031;DHT22;56083;48.774;8.942;2023-02-28T01:56:43;-4.40;99.90
69031;DHT22;56083;48.774;8.942;2023-02-28T01:59:24;-4.40;99.90
69031;DHT22;56083;48.774;8.942;2023-02-28T02:01:51;-4.40;99.90
69031;DHT22;56083;48.774;8.942;2023-02-28T02:04:17;-4.40;99.90
69031;DHT22;56083;48.774;8.942;2023-02-28T02:06:45;-4.40;99.90
69031;DHT22;56083;48.774;8.942;2023-02-28T02:09:12;-4.40;99.90
69031;DHT22;56083;48.774;8.942;2023-02-28T02:11:40;-4.50;99.90
69031;DHT22;56083;48.774;8.942;2023-02-28T02:18:13;-4.50;99.90
69031;DHT22;56083;48.774;8.942;2023-02-28T02:42:51;-4.50;99.90
69031;DHT22;56083;48.774;8.942;2023-02-28T02:48:05;-4.40;99.90
69031;DHT22;56083;48.774;8.942;2023-02-28T02:50:38;-4.40;99.90
69031;DHT22;56083;48.774;8.942;2023-02-28T02:53:06;-4.30;99.90
69031;DHT22;56083;48.774;8.942;2023-02-28T02:55:36;-4.40;99.90
69031;DHT22;56083;48.774;8.942;2023-02-28T02:58:05;-4.30;99.90
69031;DHT22;56083;48.774;8.942;2023-02-28T03:00:42;-4.40;99.90
69031;DHT22;56083;48.774;8.942;2023-02-28T03:03:09;-4.40;99.90
69031;DHT22;56083;48.774;8.942;2023-02-28T03:05:42;-4.40;99.90
69031;DHT22;56083;48.774;8.942;2023-02-28T03:08:10;-4.40;99.90
69031;DHT22;56083;48.774;8.942;2023-02-28T03:10:45;-4.30;99.90
69031;DHT22;56083;48.774;8.942;2023-02-28T03:18:54;-4.20;99.90
69031;DHT22;56083;48.774;8.942;2023-02-28T03:21:27;-4.20;99.90
69031;DHT22;56083;48.774;8.942;2023-02-28T03:24:08;-4.10;99.90
69031;DHT22;56083;48.774;8.942;2023-02-28T03:26:41;-4.10;99.90
69031;DHT22;56083;48.774;8.942;2023-02-28T03:29:11;-4.10;99.90
69031;DHT22;56083;48.774;8.942;2023-02-28T03:31:54;-4.00;99.90
69031;DHT22;56083;48.774;8.942;2023-02-28T03:34:41;-3.90;99.90
69031;DHT22;56083;48.774;8.942;2023-02-28T03:37:17;-3.90;99.90
69031;DHT22;56083;48.774;8.942;2023-02-28T03:39:49;-3.90;99.90
69031;DHT22;56083;48.774;8.942;2023-02-28T03:42:22;-3.80;99.90
69031;DHT22;56083;48.774;8.942;2023-02-28T03:44:53;-3.80;99.90
69031;DHT22;56083;48.774;8.942;2023-02-28T03:47:27;-3.80;99.90
69031;DHT22;56083;48.774;8.942;2023-02-28T03:50:19;-3.70;99.90
69031;DHT22;56083;48.774;8.942;2023-02-28T03:52:58;-3.70;99.90
69031;DHT22;56083;48.774;8.942;2023-02-28T03:55:28;-3.60;99.90
69031;DHT22;56083;48.774;8.942;2023-02-28T03:58:22;-3.60;99.90
69031;DHT22;56083;48.774;8.942;2023-02-28T04:00:59;-3.60;99.90
69031;DHT22;56083;48.774;8.942;2023-02-28T04:03:33;-3.50;99.90
69031;DHT22;56083;48.774;8.942;2023-02-28T04:05:59;-3.50;99.90
69031;DHT22;56083;48.774;8.942;2023-02-28T04:08:25;-3.40;99.90
69031;DHT22;56083;48.774;8.942;2023-02-28T04:10:56;-3.40;99.90
69031;DHT22;56083;48.774;8.942;2023-02-28T04:13:23;-3.40;99.90
69031;DHT22;56083;48.774;8.942;2023-02-28T04:15:48;-3.40;99.90
69031;DHT22;56083;48.774;8.942;2023-02-28T04:18:14;-3.40;99.90
69031;DHT22;56083;48.774;8.942;2023-02-28T04:20:39;-3.40;99.90
69031;DHT22;56083;48.774;8.942;2023-02-28T04:23:05;-3.40;99.90
69031;DHT22;56083;48.774;8.942;2023-02-28T04:25:30;-3.40;99.90
69031;DHT22;56083;48.774;8.942;2023-02-28T04:27:56;-3.40;99.90
69031;DHT22;56083;48.774;8.942;2023-02-28T04:30:22;-3.40;99.90
69031;DHT22;56083;48.774;8.942;2023-02-28T04:32:47;-3.40;99.90
69031;DHT22;56083;48.774;8.942;2023-02-28T04:35:13;-3.40;99.90
69031;DHT22;56083;48.774;8.942;2023-02-28T04:37:38;-3.30;99.90
69031;DHT22;56083;48.774;8.942;2023-02-28T04:40:04;-3.30;99.90
69031;DHT22;56083;48.774;8.942;2023-02-28T04:42:30;-3.30;99.90
69031;DHT22;56083;48.774;8.942;2023-02-28T04:45:01;-3.20;99.90
69031;DHT22;56083;48.774;8.942;2023-02-28T04:47:27;-3.20;99.90
69031;DHT22;56083;48.774;8.942;2023-02-28T04:49:52;-3.10;99.90
69031;DHT22;56083;48.774;8.942;2023-02-28T04:52:18;-3.10;99.90
69031;DHT22;56083;48.774;8.942;2023-02-28T04:54:43;-3.00;99.90
69031;DHT22;56083;48.774;8.942;2023-02-28T04:57:09;-3.00;99.90
69031;DHT22;56083;48.774;8.942;2023-02-28T04:59:35;-3.00;99.90
69031;DHT22;56083;48.774;8.942;2023-02-28T05:02:00;-2.90;99.90
69031;DHT22;56083;48.774;8.942;2023-02-28T05:04:35;-2.90;99.90
69031;DHT22;56083;48.774;8.942;2023-02-28T05:07:02;-2.90;99.90
69031;DHT22;56083;48.774;8.942;2023-02-28T05:09:28;-2.80;99.90
69031;DHT22;56083;48.774;8.942;2023-02-28T05:11:54;-2.80;99.90
69031;DHT22;56083;48.774;8.942;2023-02-28T05:14:20;-2.70;99.90
69031;DHT22;56083;48.774;8.942;2023-02-28T05:16:46;-2.70;99.90
69031;DHT22;56083;48.774;8.942;2023-02-28T05:19:12;-2.70;99.90
69031;DHT22;56083;48.774;8.942;2023-02-28T05:21:40;-2.70;99.90
69031;DHT22;56083;48.774;8.942;2023-02-28T05:24:10;-2.70;99.90
69031;DHT22;56083;48.774;8.942;2023-02-28T05:26:38;-2.70;99.90
69031;DHT22;56083;48.774;8.942;2023-02-28T05:29:04;-2.60;99.90
69031;DHT22;56083;48.774;8.942;2023-02-28T05:31:30;-2.60;99.90
69031;DHT22;56083;48.774;8.942;2023-02-28T05:33:56;-2.60;99.90
69031;DHT22;56083;48.774;8.942;2023-02-28T05:36:22;-2.60;99.90
69031;DHT22;56083;48.774;8.942;2023-02-28T05:38:49;-2.60;99.90
69031;DHT22;56083;48.774;8.942;2023-02-28T05:41:15;-2.60;99.90
69031;DHT22;56083;48.774;8.942;2023-02-28T05:43:41;-2.50;99.90
69031;DHT22;56083;48.774;8.942;2023-02-28T05:46:09;-2.50;99.90
69031;DHT22;56083;48.774;8.942;2023-02-28T05:48:36;-2.40;99.90
69031;DHT22;56083;48.774;8.942;2023-02-28T05:51:03;-2.40;99.90
69031;DHT22;56083;48.774;8.942;2023-02-28T05:53:29;-2.40;99.90
69031;DHT22;56083;48.774;8.942;2023-02-28T05:55:55;-2.40;99.90
69031;DHT22;56083;48.774;8.942;2023-02-28T05:58:21;-2.50;99.90
69031;DHT22;56083;48.774;8.942;2023-02-28T06:00:47;-2.50;99.90
69031;DHT22;56083;48.774;8.942;2023-02-28T06:03:13;-2.50;99.90
69031;DHT22;56083;48.774;8.942;2023-02-28T06:05:39;-2.50;99.90
69031;DHT22;56083;48.774;8.942;2023-02-28T06:08:05;-2.40;99.90
69031;DHT22;56083;48.774;8.942;2023-02-28T06:10:34;-2.40;99.90
69031;DHT22;56083;48.774;8.942;2023-02-28T06:13:01;-2.40;99.90
69031;DHT22;56083;48.774;8.942;2023-02-28T06:15:28;-2.40;99.90
69031;DHT22;56083;48.774;8.942;2023-02-28T06:17:53;-2.40;99.90
69031;DHT22;56083;48.774;8.942;2023-02-28T06:20:21;-2.40;99.90
69031;DHT22;56083;48.774;8.942;2023-02-28T06:22:47;-2.40;99.90
69031;DHT22;56083;48.774;8.942;2023-02-28T06:25:13;-2.40;99.90
69031;DHT22;56083;48.774;8.942;2023-02-28T06:27:38;-2.30;99.90
69031;DHT22;56083;48.774;8.942;2023-02-28T06:30:04;-2.30;99.90
69031;DHT22;56083;48.774;8.942;2023-02-28T06:32:30;-2.30;99.90
69031;DHT22;56083;48.774;8.942;2023-02-28T06:34:56;-2.30;99.90
69031;DHT22;56083;48.774;8.942;2023-02-28T06:37:23;-2.30;99.90
69031;DHT22;56083;48.774;8.942;2023-02-28T06:39:51;-2.30;99.90
69031;DHT22;56083;48.774;8.942;2023-02-28T06:42:17;-2.30;99.90
69031;DHT22;56083;48.774;8.942;2023-02-28T06:44:43;-2.30;99.90
69031;DHT22;56083;48.774;8.942;2023-02-28T06:47:09;-2.30;99.90
69031;DHT22;56083;48.774;8.942;2023-02-28T06:49:36;-2.30;99.90
69031;DHT22;56083;48.774;8.942;2023-02-28T06:52:03;-2.30;99.90
69031;DHT22;56083;48.774;8.942;2023-02-28T06:54:28;-2.30;99.90
69031;DHT22;56083;48.774;8.942;2023-02-28T06:56:54;-2.20;99.90
69031;DHT22;56083;48.774;8.942;2023-02-28T06:59:20;-2.20;99.90
69031;DHT22;56083;48.774;8.942;2023-02-28T07:01:46;-2.20;99.90
69031;DHT22;56083;48.774;8.942;2023-02-28T07:04:12;-2.20;99.90
69031;DHT22;56083;48.774;8.942;2023-02-28T07:06:38;-2.20;99.90
69031;DHT22;56083;48.774;8.942;2023-02-28T07:09:04;-2.10;99.90
69031;DHT22;56083;48.774;8.942;2023-02-28T07:11:30;-2.00;99.90
69031;DHT22;56083;48.774;8.942;2023-02-28T07:13:56;-2.00;99.90
69031;DHT22;56083;48.774;8.942;2023-02-28T07:16:24;-2.00;99.90
69031;DHT22;56083;48.774;8.942;2023-02-28T07:18:51;-1.90;99.90
69031;DHT22;56083;48.774;8.942;2023-02-28T07:21:17;-1.90;99.90
69031;DHT22;56083;48.774;8.942;2023-02-28T07:23:43;-1.80;99.90
69031;DHT22;56083;48.774;8.942;2023-02-28T07:26:14;-1.70;99.90
69031;DHT22;56083;48.774;8.942;2023-02-28T07:28:45;-1.60;99.90
69031;DHT22;56083;48.774;8.942;2023-02-28T07:31:11;-1.60;99.90
69031;DHT22;56083;48.774;8.942;2023-02-28T07:33:39;-1.60;99.90
69031;DHT22;56083;48.774;8.942;2023-02-28T07:36:17;-1.60;99.90
69031;DHT22;56083;48.774;8.942;2023-02-28T07:38:47;-1.50;99.90
69031;DHT22;56083;48.774;8.942;2023-02-28T07:41:16;-1.50;99.90
69031;DHT22;56083;48.774;8.942;2023-02-28T07:43:42;-1.50;99.90
69031;DHT22;56083;48.774;8.942;2023-02-28T07:46:10;-1.50;99.90
69031;DHT22;56083;48.774;8.942;2023-02-28T07:48:36;-1.40;99.90
69031;DHT22;56083;48.774;8.942;2023-02-28T07:51:02;-1.40;99.90
69031;DHT22;56083;48.774;8.942;2023-02-28T07:53:29;-1.40;99.90
69031;DHT22;56083;48.774;8.942;2023-02-28T07:55:56;-1.40;99.90
69031;DHT22;56083;48.774;8.942;2023-02-28T07:58:22;-1.30;99.90
69031;DHT22;56083;48.774;8.942;2023-02-28T08:00:47;-1.30;99.90
69031;DHT22;56083;48.774;8.942;2023-02-28T08:03:13;-1.30;99.90
69031;DHT22;56083;48.774;8.942;2023-02-28T08:05:39;-1.30;99.90
69031;DHT22;56083;48.774;8.942;2023-02-28T08:08:06;-1.20;99.90
69031;DHT22;56083;48.774;8.942;2023-02-28T08:10:32;-1.20;99.90
69031;DHT22;56083;48.774;8.942;2023-02-28T08:12:58;-1.20;99.90
69031;DHT22;56083;48.774;8.942;2023-02-28T08:15:23;-1.20;99.90
69031;DHT22;56083;48.774;8.942;2023-02-28T08:17:49;-1.20;99.90
69031;DHT22;56083;48.774;8.942;2023-02-28T08:20:14;-1.10;99.90
69031;DHT22;56083;48.774;8.942;2023-02-28T08:22:40;-1.20;99.90
69031;DHT22;56083;48.774;8.942;2023-02-28T08:25:07;-1.10;99.90
69031;DHT22;56083;48.774;8.942;2023-02-28T08:27:33;-1.10;99.90
69031;DHT22;56083;48.774;8.942;2023-02-28T08:29:59;-1.10;99.90
69031;DHT22;56083;48.774;8.942;2023-02-28T08:32:24;-1.20;99.90
69031;DHT22;56083;48.774;8.942;2023-02-28T08:34:50;-1.10;99.90
69031;DHT22;56083;48.774;8.942;2023-02-28T08:37:16;-1.10;99.90
69031;DHT22;56083;48.774;8.942;2023-02-28T08:39:42;-1.10;99.90
69031;DHT22;56083;48.774;8.942;2023-02-28T08:42:07;-1.00;99.90
69031;DHT22;56083;48.774;8.942;2023-02-28T08:44:33;-0.90;99.90
69031;DHT22;56083;48.774;8.942;2023-02-28T08:46:59;-0.90;99.90
69031;DHT22;56083;48.774;8.942;2023-02-28T08:49:24;-0.90;99.90
69031;DHT22;56083;48.774;8.942;2023-02-28T08:51:50;-0.80;99.90
69031;DHT22;56083;48.774;8.942;2023-02-28T08:54:16;-0.80;99.90
69031;DHT22;56083;48.774;8.942;2023-02-28T08:56:45;-0.70;99.90
69031;DHT22;56083;48.774;8.942;2023-02-28T08:59:12;-0.60;99.90
69031;DHT22;56083;48.774;8.942;2023-02-28T09:01:38;-0.60;99.90
69031;DHT22;56083;48.774;8.942;2023-02-28T09:04:04;-0.50;99.90
69031;DHT22;56083;48.774;8.942;2023-02-28T09:06:32;-0.50;99.90
69031;DHT22;56083;48.774;8.942;2023-02-28T09:08:58;-0.60;99.90
69031;DHT22;56083;48.774;8.942;2023-02-28T09:11:24;-0.60;99.90
69031;DHT22;56083;48.774;8.942;2023-02-28T09:13:50;-0.60;99.90
69031;DHT22;56083;48.774;8.942;2023-02-28T09:16:17;-0.50;99.90
69031;DHT22;56083;48.774;8.942;2023-02-28T09:18:43;-0.40;99.90
69031;DHT22;56083;48.774;8.942;2023-02-28T09:21:11;-0.40;99.90
69031;DHT22;56083;48.774;8.942;2023-02-28T09:23:40;-0.40;99.90
69031;DHT22;56083;48.774;8.942;2023-02-28T09:26:06;-0.40;99.90
69031;DHT22;56083;48.774;8.942;2023-02-28T09:28:32;-0.30;99.90
69031;DHT22;56083;48.774;8.942;2023-02-28T09:30:57;-0.30;99.90
69031;DHT22;56083;48.774;8.942;2023-02-28T09:33:25;-0.30;99.90
69031;DHT22;56083;48.774;8.942;2023-02-28T09:35:57;-0.20;99.90
69031;DHT22;56083;48.774;8.942;2023-02-28T09:38:23;-0.10;99.90
69031;DHT22;56083;48.774;8.942;2023-02-28T09:40:50;-0.10;99.90
69031;DHT22;56083;48.774;8.942;2023-02-28T09:43:18;0.00;99.90
69031;DHT22;56083;48.774;8.942;2023-02-28T09:45:55;0.10;99.90
69031;DHT22;56083;48.774;8.942;2023-02-28T09:48:32;0.20;99.90
69031;DHT22;56083;48.774;8.942;2023-02-28T09:51:26;0.20;99.90
69031;DHT22;56083;48.774;8.942;2023-02-28T09:53:53;0.30;99.90
69031;DHT22;56083;48.774;8.942;2023-02-28T09:58:56;0.50;99.90
69031;DHT22;56083;48.774;8.942;2023-02-28T10:01:39;0.70;99.90
69031;DHT22;56083;48.774;8.942;2023-02-28T10:04:49;0.70;99.90
69031;DHT22;56083;48.774;8.942;2023-02-28T10:09:56;0.90;99.90
69031;DHT22;56083;48.774;8.942;2023-02-28T10:12:23;0.90;99.90
69031;DHT22;56083;48.774;8.942;2023-02-28T10:14:51;1.20;99.90
69031;DHT22;56083;48.774;8.942;2023-02-28T10:17:25;1.40;99.90
69031;DHT22;56083;48.774;8.942;2023-02-28T10:20:04;1.50;99.90
69031;DHT22;56083;48.774;8.942;2023-02-28T10:25:23;1.50;99.90
69031;DHT22;56083;48.774;8.942;2023-02-28T10:27:53;1.50;99.90
69031;DHT22;56083;48.774;8.942;2023-02-28T10:30:19;1.40;99.90
69031;DHT22;56083;48.774;8.942;2023-02-28T10:32:52;1.50;99.90
69031;DHT22;56083;48.774;8.942;2023-02-28T10:35:26;1.50;99.90
69031;DHT22;56083;48.774;8.942;2023-02-28T10:37:56;1.40;99.90
69031;DHT22;56083;48.774;8.942;2023-02-28T10:42:58;1.10;99.90
69031;DHT22;56083;48.774;8.942;2023-02-28T10:45:25;0.70;99.90
69031;DHT22;56083;48.774;8.942;2023-02-28T10:47:57;0.70;99.90
69031;DHT22;56083;48.774;8.942;2023-02-28T10:58:57;1.70;99.90
69031;DHT22;56083;48.774;8.942;2023-02-28T11:03:55;2.20;99.90
69031;DHT22;56083;48.774;8.942;2023-02-28T11:06:33;2.50;99.90
69031;DHT22;56083;48.774;8.942;2023-02-28T11:09:02;2.40;99.90
69031;DHT22;56083;48.774;8.942;2023-02-28T11:11:29;2.60;99.90
69031;DHT22;56083;48.774;8.942;2023-02-28T11:14:03;2.60;99.90
69031;DHT22;56083;48.774;8.942;2023-02-28T11:16:35;3.00;99.90
69031;DHT22;56083;48.774;8.942;2023-02-28T11:19:02;3.60;99.90
69031;DHT22;56083;48.774;8.942;2023-02-28T11:21:30;4.50;99.90
69031;DHT22;56083;48.774;8.942;2023-02-28T11:24:28;5.80;99.90
69031;DHT22;56083;48.774;8.942;2023-02-28T11:26:56;8.30;99.90
69031;DHT22;56083;48.774;8.942;2023-02-28T11:29:23;10.70;99.90
69031;DHT22;56083;48.774;8.942;2023-02-28T11:34:35;13.80;90.00
69031;DHT22;56083;48.774;8.942;2023-02-28T11:37:02;13.80;80.90
69031;DHT22;56083;48.774;8.942;2023-02-28T11:39:31;14.00;78.50
69031;DHT22;56083;48.774;8.942;2023-02-28T11:45:22;14.00;74.10
69031;DHT22;56083;48.774;8.942;2023-02-28T11:55:52;15.90;66.80
69031;DHT22;56083;48.774;8.942;2023-02-28T12:01:49;16.30;61.10
69031;DHT22;56083;48.774;8.942;2023-02-28T12:10:24;17.60;58.30
69031;DHT22;56083;48.774;8.942;2023-02-28T12:18:13;16.80;57.00
69031;DHT22;56083;48.774;8.942;2023-02-28T12:20:53;17.60;56.60
69031;DHT22;56083;48.774;8.942;2023-02-28T12:23:21;18.40;55.50
69031;DHT22;56083;48.774;8.942;2023-02-28T12:28:43;18.50;54.30
69031;DHT22;56083;48.774;8.942;2023-02-28T12:31:23;18.20;54.30
69031;DHT22;56083;48.774;8.942;2023-02-28T12:33:53;17.70;54.50
69031;DHT22;56083;48.774;8.942;2023-02-28T12:36:21;16.90;54.30
69031;DHT22;56083;48.774;8.942;2023-02-28T12:38:54;15.60;55.60
69031;DHT22;56083;48.774;8.942;2023-02-28T12:42:04;14.30;58.50
69031;DHT22;56083;48.774;8.942;2023-02-28T12:44:44;14.70;58.30
69031;DHT22;56083;48.774;8.942;2023-02-28T12:47:18;15.70;57.70
69031;DHT22;56083;48.774;8.942;2023-02-28T12:50:04;17.20;55.90
69031;DHT22;56083;48.774;8.942;2023-02-28T12:58:13;18.00;53.50
69031;DHT22;56083;48.774;8.942;2023-02-28T13:08:58;18.90;51.00
69031;DHT22;56083;48.774;8.942;2023-02-28T13:11:29;18.50;50.40
69031;DHT22;56083;48.774;8.942;2023-02-28T13:14:16;18.40;50.90
69031;DHT22;56083;48.774;8.942;2023-02-28T13:17:10;18.00;50.70
69031;DHT22;56083;48.774;8.942;2023-02-28T13:22:35;14.50;56.40
69031;DHT22;56083;48.774;8.942;2023-02-28T13:27:55;15.70;55.10
69031;DHT22;56083;48.774;8.942;2023-02-28T13:38:46;14.00;56.20
69031;DHT22;56083;48.774;8.942;2023-02-28T13:44:07;12.30;61.30
69031;DHT22;56083;48.774;8.942;2023-02-28T13:46:36;11.50;62.20
69031;DHT22;56083;48.774;8.942;2023-02-28T14:03:22;15.30;56.30
69031;DHT22;56083;48.774;8.942;2023-02-28T14:08:34;15.60;54.40
69031;DHT22;56083;48.774;8.942;2023-02-28T14:11:06;16.00;54.60
69031;DHT22;56083;48.774;8.942;2023-02-28T14:13:42;15.90;54.40
69031;DHT22;56083;48.774;8.942;2023-02-28T14:16:10;15.60;55.30
69031;DHT22;56083;48.774;8.942;2023-02-28T14:18:42;15.50;55.00
69031;DHT22;56083;48.774;8.942;2023-02-28T14:21:21;15.10;55.20
69031;DHT22;56083;48.774;8.942;2023-02-28T14:24:20;14.70;56.20
69031;DHT22;56083;48.774;8.942;2023-02-28T14:27:15;14.50;55.50
69031;DHT22;56083;48.774;8.942;2023-02-28T14:32:41;14.90;56.80
69031;DHT22;56083;48.774;8.942;2023-02-28T14:37:53;14.50;56.80
69031;DHT22;56083;48.774;8.942;2023-02-28T14:40:30;14.80;56.50
69031;DHT22;56083;48.774;8.942;2023-02-28T14:43:03;15.40;55.80
69031;DHT22;56083;48.774;8.942;2023-02-28T14:45:30;15.60;55.20
69031;DHT22;56083;48.774;8.942;2023-02-28T14:47:57;15.30;55.80
69031;DHT22;56083;48.774;8.942;2023-02-28T14:50:31;15.10;55.80
69031;DHT22;56083;48.774;8.942;2023-02-28T14:52:57;15.00;55.60
69031;DHT22;56083;48.774;8.942;2023-02-28T14:55:30;14.30;56.10
69031;DHT22;56083;48.774;8.942;2023-02-28T14:58:01;13.30;57.40
69031;DHT22;56083;48.774;8.942;2023-02-28T15:00:37;13.20;58.20
69031;DHT22;56083;48.774;8.942;2023-02-28T15:03:21;13.00;58.90
69031;DHT22;56083;48.774;8.942;2023-02-28T15:05:55;13.20;59.00
69031;DHT22;56083;48.774;8.942;2023-02-28T15:08:21;13.00;59.20
69031;DHT22;56083;48.774;8.942;2023-02-28T15:10:59;12.80;59.90
69031;DHT22;56083;48.774;8.942;2023-02-28T15:16:32;11.70;62.20
69031;DHT22;56083;48.774;8.942;2023-02-28T15:19:20;11.80;62.80
69031;DHT22;56083;48.774;8.942;2023-02-28T15:21:50;11.80;62.90
69031;DHT22;56083;48.774;8.942;2023-02-28T15:26:57;11.20;64.10
69031;DHT22;56083;48.774;8.942;2023-02-28T15:29:25;11.00;64.20
69031;DHT22;56083;48.774;8.942;2023-02-28T15:32:04;11.20;64.50
69031;DHT22;56083;48.774;8.942;2023-02-28T15:34:42;11.30;64.00
69031;DHT22;56083;48.774;8.942;2023-02-28T15:39:55;11.20;64.40
69031;DHT22;56083;48.774;8.942;2023-02-28T15:42:23;11.10;65.10
69031;DHT22;56083;48.774;8.942;2023-02-28T15:44:52;11.60;64.00
69031;DHT22;56083;48.774;8.942;2023-02-28T15:47:27;11.30;64.80
69031;DHT22;56083;48.774;8.942;2023-02-28T15:49:56;11.40;65.40
69031;DHT22;56083;48.774;8.942;2023-02-28T15:52:44;11.40;64.60
69031;DHT22;56083;48.774;8.942;2023-02-28T15:55:26;11.30;64.90
69031;DHT22;56083;48.774;8.942;2023-02-28T15:57:55;10.90;65.40
69031;DHT22;56083;48.774;8.942;2023-02-28T16:00:25;10.70;66.10
69031;DHT22;56083;48.774;8.942;2023-02-28T16:02:51;10.70;66.30
69031;DHT22;56083;48.774;8.942;2023-02-28T16:07:46;10.40;66.90
69031;DHT22;56083;48.774;8.942;2023-02-28T16:10:13;9.80;68.70
69031;DHT22;56083;48.774;8.942;2023-02-28T16:12:40;9.30;70.50
69031;DHT22;56083;48.774;8.942;2023-02-28T16:15:14;9.10;71.60
69031;DHT22;56083;48.774;8.942;2023-02-28T16:17:41;8.70;72.60
69031;DHT22;56083;48.774;8.942;2023-02-28T16:22:43;8.10;75.10
69031;DHT22;56083;48.774;8.942;2023-02-28T16:25:13;7.90;75.90
69031;DHT22;56083;48.774;8.942;2023-02-28T16:27:39;7.40;76.90
69031;DHT22;56083;48.774;8.942;2023-02-28T16:30:06;6.80;78.70
69031;DHT22;56083;48.774;8.942;2023-02-28T16:32:34;6.20;81.00
69031;DHT22;56083;48.774;8.942;2023-02-28T16:35:01;5.80;83.00
69031;DHT22;56083;48.774;8.942;2023-02-28T16:37:27;5.50;84.90
69031;DHT22;56083;48.774;8.942;2023-02-28T16:39:53;5.10;86.60
69031;DHT22;56083;48.774;8.942;2023-02-28T16:42:27;4.70;88.00
69031;DHT22;56083;48.774;8.942;2023-02-28T16:44:54;4.50;88.80
69031;DHT22;56083;48.774;8.942;2023-02-28T16:47:21;4.40;90.10
69031;DHT22;56083;48.774;8.942;2023-02-28T16:49:46;4.20;90.70
69031;DHT22;56083;48.774;8.942;2023-02-28T16:52:13;4.00;91.10
69031;DHT22;56083;48.774;8.942;2023-02-28T16:54:40;3.80;91.60
69031;DHT22;56083;48.774;8.942;2023-02-28T16:57:08;3.60;92.20
69031;DHT22;56083;48.774;8.942;2023-02-28T16:59:38;3.50;92.60
69031;DHT22;56083;48.774;8.942;2023-02-28T17:02:12;3.30;92.90
69031;DHT22;56083;48.774;8.942;2023-02-28T17:04:38;3.10;93.60
69031;DHT22;56083;48.774;8.942;2023-02-28T17:07:03;3.00;94.40
69031;DHT22;56083;48.774;8.942;2023-02-28T17:09:29;2.80;95.10
69031;DHT22;56083;48.774;8.942;2023-02-28T17:11:54;2.70;95.90
69031;DHT22;56083;48.774;8.942;2023-02-28T17:14:22;2.50;96.90
69031;DHT22;56083;48.774;8.942;2023-02-28T17:16:49;2.40;98.00
69031;DHT22;56083;48.774;8.942;2023-02-28T17:19:16;2.20;99.60
69031;DHT22;56083;48.774;8.942;2023-02-28T17:21:43;2.10;99.90
69031;DHT22;56083;48.774;8.942;2023-02-28T17:24:09;1.90;99.90
69031;DHT22;56083;48.774;8.942;2023-02-28T17:26:41;1.80;99.90
69031;DHT22;56083;48.774;8.942;2023-02-28T17:29:15;1.70;99.90
69031;DHT22;56083;48.774;8.942;2023-02-28T17:31:41;1.60;99.90
69031;DHT22;56083;48.774;8.942;2023-02-28T17:34:07;1.60;99.90
69031;DHT22;56083;48.774;8.942;2023-02-28T17:36:33;1.50;99.90
69031;DHT22;56083;48.774;8.942;2023-02-28T17:39:01;1.40;99.90
69031;DHT22;56083;48.774;8.942;2023-02-28T17:41:26;1.40;99.90
69031;DHT22;56083;48.774;8.942;2023-02-28T17:43:52;1.30;99.90
69031;DHT22;56083;48.774;8.942;2023-02-28T17:46:22;1.30;99.90
69031;DHT22;56083;48.774;8.942;2023-02-28T17:48:49;1.20;99.90
69031;DHT22;56083;48.774;8.942;2023-02-28T17:51:16;1.10;99.90
69031;DHT22;56083;48.774;8.942;2023-02-28T17:53:42;1.00;99.90
69031;DHT22;56083;48.774;8.942;2023-02-28T17:56:19;0.90;99.90
69031;DHT22;56083;48.774;8.942;2023-02-28T17:58:45;0.80;99.90
69031;DHT22;56083;48.774;8.942;2023-02-28T18:01:10;0.80;99.90
69031;DHT22;56083;48.774;8.942;2023-02-28T18:03:37;0.70;99.90
69031;DHT22;56083;48.774;8.942;2023-02-28T18:06:03;0.60;99.90
69031;DHT22;56083;48.774;8.942;2023-02-28T18:08:29;0.50;99.90
69031;DHT22;56083;48.774;8.942;2023-02-28T18:10:56;0.40;99.90
69031;DHT22;56083;48.774;8.942;2023-02-28T18:13:21;0.30;99.90
69031;DHT22;56083;48.774;8.942;2023-02-28T18:15:47;0.20;99.90
69031;DHT22;56083;48.774;8.942;2023-02-28T18:18:13;0.10;99.90
69031;DHT22;56083;48.774;8.942;2023-02-28T18:20:41;0.00;99.90
69031;DHT22;56083;48.774;8.942;2023-02-28T18:23:06;0.00;99.90
69031;DHT22;56083;48.774;8.942;2023-02-28T18:25:32;-0.10;99.90